sensor_id;sensor_type;location;lat;lon;timestamp;P1;durP1;ratioP1;P2;durP2;ratioP2
76228;SDS011;65021;53.174;18.160;2023-05-15T00:01:12;7.90;;;4.30;;
76228;SDS011;65021;53.174;18.160;2023-05-15T00:03:38;13.40;;;5.70;;
76228;SDS011;65021;53.174;18.160;2023-05-15T00:06:05;7.60;;;3.70;;
76228;SDS011;65021;53.174;18.160;2023-05-15T00:08:32;5.70;;;3.10;;
76228;SDS011;65021;53.174;18.160;2023-05-15T00:10:59;9.80;;;4.60;;
76228;SDS011;65021;53.174;18.160;2023-05-15T00:13:25;11.20;;;4.50;;
76228;SDS011;65021;53.174;18.160;2023-05-15T00:15:52;6.50;;;2.90;;
76228;SDS011;65021;53.174;18.160;2023-05-15T00:18:19;8.30;;;4.40;;
76228;SDS011;65021;53.174;18.160;2023-05-15T00:20:45;9.30;;;4.50;;
76228;SDS011;65021;53.174;18.160;2023-05-15T00:23:12;10.20;;;4.90;;
76228;SDS011;65021;53.174;18.160;2023-05-15T00:25:38;5.70;;;3.30;;
76228;SDS011;65021;53.174;18.160;2023-05-15T00:28:05;7.90;;;4.10;;
76228;SDS011;65021;53.174;18.160;2023-05-15T00:30:32;9.50;;;4.50;;
76228;SDS011;65021;53.174;18.160;2023-05-15T00:32:58;9.20;;;5.20;;
76228;SDS011;65021;53.174;18.160;2023-05-15T00:35:25;8.00;;;5.00;;
76228;SDS011;65021;53.174;18.160;2023-05-15T00:37:51;9.90;;;3.70;;
76228;SDS011;65021;53.174;18.160;2023-05-15T00:40:19;11.20;;;5.00;;
76228;SDS011;65021;53.174;18.160;2023-05-15T00:42:49;6.10;;;3.20;;
76228;SDS011;65021;53.174;18.160;2023-05-15T00:45:18;8.30;;;4.50;;
76228;SDS011;65021;53.174;18.160;2023-05-15T00:47:45;7.10;;;3.90;;
76228;SDS011;65021;53.174;18.160;2023-05-15T00:50:16;10.10;;;5.30;;
76228;SDS011;65021;53.174;18.160;2023-05-15T00:52:44;8.60;;;3.50;;
76228;SDS011;65021;53.174;18.160;2023-05-15T00:55:11;8.60;;;3.70;;
76228;SDS011;65021;53.174;18.160;2023-05-15T00:57:37;12.00;;;5.10;;
76228;SDS011;65021;53.174;18.160;2023-05-15T01:00:07;9.00;;;5.20;;
76228;SDS011;65021;53.174;18.160;2023-05-15T01:02:35;7.20;;;3.90;;
76228;SDS011;65021;53.174;18.160;2023-05-15T01:05:02;8.60;;;4.20;;
76228;SDS011;65021;53.174;18.160;2023-05-15T01:07:30;8.70;;;4.70;;
76228;SDS011;65021;53.174;18.160;2023-05-15T01:10:01;7.50;;;3.60;;
76228;SDS011;65021;53.174;18.160;2023-05-15T01:14:57;9.40;;;4.90;;
76228;SDS011;65021;53.174;18.160;2023-05-15T01:17:24;8.60;;;4.50;;
76228;SDS011;65021;53.174;18.160;2023-05-15T01:19:50;12.10;;;4.60;;
76228;SDS011;65021;53.174;18.160;2023-05-15T01:28:19;7.40;;;4.20;;
76228;SDS011;65021;53.174;18.160;2023-05-15T01:30:49;10.00;;;4.80;;
76228;SDS011;65021;53.174;18.160;2023-05-15T01:33:27;9.00;;;3.70;;
76228;SDS011;65021;53.174;18.160;2023-05-15T01:36:00;6.70;;;3.80;;
76228;SDS011;65021;53.174;18.160;2023-05-15T01:38:36;7.10;;;3.70;;
76228;SDS011;65021;53.174;18.160;2023-05-15T01:41:08;7.60;;;3.50;;
76228;SDS011;65021;53.174;18.160;2023-05-15T01:43:41;6.20;;;3.30;;
76228;SDS011;65021;53.174;18.160;2023-05-15T01:46:11;6.70;;;4.00;;
76228;SDS011;65021;53.174;18.160;2023-05-15T01:48:42;7.20;;;2.80;;
76228;SDS011;65021;53.174;18.160;2023-05-15T01:51:10;6.50;;;2.90;;
76228;SDS011;65021;53.174;18.160;2023-05-15T01:53:39;4.30;;;2.30;;
76228;SDS011;65021;53.174;18.160;2023-05-15T01:56:07;7.90;;;3.40;;
76228;SDS011;65021;53.174;18.160;2023-05-15T01:58:36;6.20;;;3.50;;
76228;SDS011;65021;53.174;18.160;2023-05-15T02:01:05;6.40;;;3.50;;
76228;SDS011;65021;53.174;18.160;2023-05-15T02:03:33;7.60;;;3.20;;
76228;SDS011;65021;53.174;18.160;2023-05-15T02:06:03;8.60;;;3.60;;
76228;SDS011;65021;53.174;18.160;2023-05-15T02:08:31;8.90;;;4.00;;
76228;SDS011;65021;53.174;18.160;2023-05-15T02:10:58;7.80;;;3.50;;
76228;SDS011;65021;53.174;18.160;2023-05-15T02:13:26;8.60;;;4.10;;
76228;SDS011;65021;53.174;18.160;2023-05-15T02:15:54;6.00;;;3.30;;
76228;SDS011;65021;53.174;18.160;2023-05-15T02:18:20;6.80;;;3.40;;
76228;SDS011;65021;53.174;18.160;2023-05-15T02:20:47;6.30;;;3.20;;
76228;SDS011;65021;53.174;18.160;2023-05-15T02:23:14;5.90;;;2.70;;
76228;SDS011;65021;53.174;18.160;2023-05-15T02:28:23;7.00;;;4.30;;
76228;SDS011;65021;53.174;18.160;2023-05-15T02:36:29;6.70;;;3.40;;
76228;SDS011;65021;53.174;18.160;2023-05-15T02:38:59;7.00;;;3.50;;
76228;SDS011;65021;53.174;18.160;2023-05-15T02:41:27;8.40;;;3.80;;
76228;SDS011;65021;53.174;18.160;2023-05-15T02:43:55;6.90;;;3.30;;
76228;SDS011;65021;53.174;18.160;2023-05-15T02:46:22;5.80;;;2.50;;
76228;SDS011;65021;53.174;18.160;2023-05-15T02:48:50;8.20;;;3.90;;
76228;SDS011;65021;53.174;18.160;2023-05-15T02:51:17;8.60;;;4.10;;
76228;SDS011;65021;53.174;18.160;2023-05-15T02:53:44;6.30;;;3.10;;
76228;SDS011;65021;53.174;18.160;2023-05-15T02:56:10;6.00;;;2.90;;
76228;SDS011;65021;53.174;18.160;2023-05-15T02:58:37;7.80;;;3.60;;
76228;SDS011;65021;53.174;18.160;2023-05-15T03:01:04;5.80;;;2.50;;
76228;SDS011;65021;53.174;18.160;2023-05-15T03:03:32;8.40;;;4.20;;
76228;SDS011;65021;53.174;18.160;2023-05-15T03:05:58;5.50;;;3.10;;
76228;SDS011;65021;53.174;18.160;2023-05-15T03:08:26;7.60;;;3.40;;
76228;SDS011;65021;53.174;18.160;2023-05-15T03:10:52;8.80;;;4.00;;
76228;SDS011;65021;53.174;18.160;2023-05-15T03:13:19;5.40;;;2.80;;
76228;SDS011;65021;53.174;18.160;2023-05-15T03:15:45;9.30;;;3.80;;
76228;SDS011;65021;53.174;18.160;2023-05-15T03:18:12;5.80;;;3.40;;
76228;SDS011;65021;53.174;18.160;2023-05-15T03:20:39;6.00;;;2.80;;
76228;SDS011;65021;53.174;18.160;2023-05-15T03:23:05;11.40;;;4.10;;
76228;SDS011;65021;53.174;18.160;2023-05-15T03:25:32;8.00;;;3.70;;
76228;SDS011;65021;53.174;18.160;2023-05-15T03:28:01;7.00;;;3.00;;
76228;SDS011;65021;53.174;18.160;2023-05-15T03:30:28;7.50;;;3.90;;
76228;SDS011;65021;53.174;18.160;2023-05-15T03:32:55;8.90;;;4.10;;
76228;SDS011;65021;53.174;18.160;2023-05-15T03:35:22;4.80;;;2.30;;
76228;SDS011;65021;53.174;18.160;2023-05-15T03:37:49;7.20;;;3.60;;
76228;SDS011;65021;53.174;18.160;2023-05-15T03:40:16;7.00;;;3.80;;
76228;SDS011;65021;53.174;18.160;2023-05-15T03:42:43;7.00;;;3.80;;
76228;SDS011;65021;53.174;18.160;2023-05-15T03:45:09;6.90;;;3.80;;
76228;SDS011;65021;53.174;18.160;2023-05-15T03:47:36;7.20;;;3.40;;
76228;SDS011;65021;53.174;18.160;2023-05-15T03:50:04;7.10;;;3.40;;
76228;SDS011;65021;53.174;18.160;2023-05-15T03:52:31;12.20;;;4.00;;
76228;SDS011;65021;53.174;18.160;2023-05-15T03:54:58;7.90;;;3.90;;
76228;SDS011;65021;53.174;18.160;2023-05-15T03:57:27;8.30;;;4.30;;
76228;SDS011;65021;53.174;18.160;2023-05-15T03:59:54;8.50;;;3.70;;
76228;SDS011;65021;53.174;18.160;2023-05-15T04:02:21;9.40;;;4.40;;
76228;SDS011;65021;53.174;18.160;2023-05-15T04:04:47;10.70;;;4.30;;
76228;SDS011;65021;53.174;18.160;2023-05-15T04:07:14;5.50;;;2.50;;
76228;SDS011;65021;53.174;18.160;2023-05-15T04:09:40;4.90;;;2.00;;
76228;SDS011;65021;53.174;18.160;2023-05-15T04:12:07;8.70;;;4.00;;
76228;SDS011;65021;53.174;18.160;2023-05-15T04:14:34;7.70;;;3.90;;
76228;SDS011;65021;53.174;18.160;2023-05-15T04:17:01;7.50;;;3.80;;
76228;SDS011;65021;53.174;18.160;2023-05-15T04:19:28;7.70;;;4.50;;
76228;SDS011;65021;53.174;18.160;2023-05-15T04:21:54;4.60;;;2.90;;
76228;SDS011;65021;53.174;18.160;2023-05-15T04:24:21;7.40;;;4.10;;
76228;SDS011;65021;53.174;18.160;2023-05-15T04:26:48;7.90;;;3.70;;
76228;SDS011;65021;53.174;18.160;2023-05-15T04:29:14;8.40;;;4.80;;
76228;SDS011;65021;53.174;18.160;2023-05-15T04:31:41;7.00;;;4.30;;
76228;SDS011;65021;53.174;18.160;2023-05-15T04:34:08;7.40;;;4.10;;
76228;SDS011;65021;53.174;18.160;2023-05-15T04:36:34;8.00;;;4.00;;
76228;SDS011;65021;53.174;18.160;2023-05-15T04:39:01;9.50;;;4.50;;
76228;SDS011;65021;53.174;18.160;2023-05-15T04:41:27;6.00;;;3.20;;
76228;SDS011;65021;53.174;18.160;2023-05-15T04:43:55;9.40;;;4.50;;
76228;SDS011;65021;53.174;18.160;2023-05-15T04:46:22;7.60;;;3.60;;
76228;SDS011;65021;53.174;18.160;2023-05-15T04:48:48;7.00;;;3.30;;
76228;SDS011;65021;53.174;18.160;2023-05-15T04:51:15;6.80;;;4.10;;
76228;SDS011;65021;53.174;18.160;2023-05-15T04:53:41;8.70;;;4.10;;
76228;SDS011;65021;53.174;18.160;2023-05-15T04:56:08;9.50;;;3.90;;
76228;SDS011;65021;53.174;18.160;2023-05-15T04:58:35;7.40;;;4.00;;
76228;SDS011;65021;53.174;18.160;2023-05-15T05:01:01;8.20;;;4.10;;
76228;SDS011;65021;53.174;18.160;2023-05-15T05:03:28;8.80;;;3.60;;
76228;SDS011;65021;53.174;18.160;2023-05-15T05:05:55;7.90;;;3.50;;
76228;SDS011;65021;53.174;18.160;2023-05-15T05:08:21;6.10;;;2.60;;
76228;SDS011;65021;53.174;18.160;2023-05-15T05:10:48;8.20;;;3.80;;
76228;SDS011;65021;53.174;18.160;2023-05-15T05:13:14;10.50;;;3.70;;
76228;SDS011;65021;53.174;18.160;2023-05-15T05:15:41;8.30;;;3.70;;
76228;SDS011;65021;53.174;18.160;2023-05-15T05:18:07;7.40;;;3.90;;
76228;SDS011;65021;53.174;18.160;2023-05-15T05:20:34;6.20;;;3.60;;
76228;SDS011;65021;53.174;18.160;2023-05-15T05:23:01;8.30;;;4.10;;
76228;SDS011;65021;53.174;18.160;2023-05-15T05:25:28;6.60;;;2.60;;
76228;SDS011;65021;53.174;18.160;2023-05-15T05:27:54;7.20;;;3.10;;
76228;SDS011;65021;53.174;18.160;2023-05-15T05:30:21;9.30;;;3.80;;
76228;SDS011;65021;53.174;18.160;2023-05-15T05:32:48;8.50;;;3.90;;
76228;SDS011;65021;53.174;18.160;2023-05-15T05:35:14;7.80;;;4.30;;
76228;SDS011;65021;53.174;18.160;2023-05-15T05:37:41;7.40;;;4.00;;
76228;SDS011;65021;53.174;18.160;2023-05-15T05:40:08;8.70;;;4.40;;
76228;SDS011;65021;53.174;18.160;2023-05-15T05:42:35;14.10;;;4.40;;
76228;SDS011;65021;53.174;18.160;2023-05-15T05:45:02;7.60;;;4.70;;
76228;SDS011;65021;53.174;18.160;2023-05-15T05:47:30;7.90;;;4.80;;
76228;SDS011;65021;53.174;18.160;2023-05-15T05:49:57;8.40;;;3.40;;
76228;SDS011;65021;53.174;18.160;2023-05-15T05:52:23;5.70;;;3.40;;
76228;SDS011;65021;53.174;18.160;2023-05-15T05:54:50;8.70;;;3.80;;
76228;SDS011;65021;53.174;18.160;2023-05-15T05:57:16;10.70;;;4.80;;
76228;SDS011;65021;53.174;18.160;2023-05-15T05:59:43;8.50;;;4.50;;
76228;SDS011;65021;53.174;18.160;2023-05-15T06:02:11;8.20;;;3.70;;
76228;SDS011;65021;53.174;18.160;2023-05-15T06:04:38;7.30;;;4.40;;
76228;SDS011;65021;53.174;18.160;2023-05-15T06:07:04;8.10;;;3.30;;
76228;SDS011;65021;53.174;18.160;2023-05-15T06:09:31;7.10;;;3.90;;
76228;SDS011;65021;53.174;18.160;2023-05-15T06:11:57;6.40;;;3.20;;
76228;SDS011;65021;53.174;18.160;2023-05-15T06:14:25;6.80;;;3.40;;
76228;SDS011;65021;53.174;18.160;2023-05-15T06:16:52;7.30;;;3.70;;
76228;SDS011;65021;53.174;18.160;2023-05-15T06:19:18;8.00;;;2.90;;
76228;SDS011;65021;53.174;18.160;2023-05-15T06:21:46;7.60;;;3.70;;
76228;SDS011;65021;53.174;18.160;2023-05-15T06:24:13;5.40;;;2.10;;
76228;SDS011;65021;53.174;18.160;2023-05-15T06:26:39;7.40;;;3.50;;
76228;SDS011;65021;53.174;18.160;2023-05-15T06:29:06;7.40;;;3.70;;
76228;SDS011;65021;53.174;18.160;2023-05-15T06:31:32;8.20;;;4.70;;
76228;SDS011;65021;53.174;18.160;2023-05-15T06:33:59;7.40;;;3.60;;
76228;SDS011;65021;53.174;18.160;2023-05-15T06:36:26;8.10;;;4.60;;
76228;SDS011;65021;53.174;18.160;2023-05-15T06:38:52;5.50;;;3.00;;
76228;SDS011;65021;53.174;18.160;2023-05-15T06:41:19;7.70;;;3.20;;
76228;SDS011;65021;53.174;18.160;2023-05-15T06:43:46;9.70;;;3.90;;
76228;SDS011;65021;53.174;18.160;2023-05-15T06:46:13;9.00;;;3.90;;
76228;SDS011;65021;53.174;18.160;2023-05-15T06:48:42;7.10;;;3.60;;
76228;SDS011;65021;53.174;18.160;2023-05-15T06:51:08;7.80;;;4.50;;
76228;SDS011;65021;53.174;18.160;2023-05-15T06:53:35;8.00;;;4.80;;
76228;SDS011;65021;53.174;18.160;2023-05-15T06:56:02;8.50;;;4.70;;
76228;SDS011;65021;53.174;18.160;2023-05-15T06:58:28;9.00;;;4.50;;
76228;SDS011;65021;53.174;18.160;2023-05-15T07:00:55;9.00;;;5.20;;
76228;SDS011;65021;53.174;18.160;2023-05-15T07:03:22;9.30;;;3.90;;
76228;SDS011;65021;53.174;18.160;2023-05-15T07:05:49;8.10;;;4.60;;
76228;SDS011;65021;53.174;18.160;2023-05-15T07:08:16;10.60;;;5.30;;
76228;SDS011;65021;53.174;18.160;2023-05-15T07:10:42;10.40;;;6.10;;
76228;SDS011;65021;53.174;18.160;2023-05-15T07:13:09;10.40;;;5.80;;
76228;SDS011;65021;53.174;18.160;2023-05-15T07:15:35;8.00;;;4.50;;
76228;SDS011;65021;53.174;18.160;2023-05-15T07:18:02;10.50;;;5.30;;
76228;SDS011;65021;53.174;18.160;2023-05-15T07:20:29;9.70;;;5.10;;
76228;SDS011;65021;53.174;18.160;2023-05-15T07:22:55;8.50;;;4.60;;
76228;SDS011;65021;53.174;18.160;2023-05-15T07:25:22;11.50;;;5.90;;
76228;SDS011;65021;53.174;18.160;2023-05-15T07:27:52;11.00;;;5.00;;
76228;SDS011;65021;53.174;18.160;2023-05-15T07:30:19;8.10;;;4.90;;
76228;SDS011;65021;53.174;18.160;2023-05-15T07:32:45;10.20;;;5.40;;
76228;SDS011;65021;53.174;18.160;2023-05-15T07:35:12;11.70;;;5.60;;
76228;SDS011;65021;53.174;18.160;2023-05-15T07:37:39;9.00;;;4.50;;
76228;SDS011;65021;53.174;18.160;2023-05-15T07:40:06;7.70;;;5.10;;
76228;SDS011;65021;53.174;18.160;2023-05-15T07:42:33;8.50;;;4.80;;
76228;SDS011;65021;53.174;18.160;2023-05-15T07:45:00;7.20;;;3.70;;
76228;SDS011;65021;53.174;18.160;2023-05-15T07:47:26;9.50;;;4.90;;
76228;SDS011;65021;53.174;18.160;2023-05-15T07:49:53;9.40;;;5.00;;
76228;SDS011;65021;53.174;18.160;2023-05-15T07:52:19;8.00;;;5.20;;
76228;SDS011;65021;53.174;18.160;2023-05-15T07:54:46;9.40;;;5.80;;
76228;SDS011;65021;53.174;18.160;2023-05-15T07:57:12;11.50;;;6.00;;
76228;SDS011;65021;53.174;18.160;2023-05-15T07:59:39;7.10;;;5.30;;
76228;SDS011;65021;53.174;18.160;2023-05-15T08:02:06;10.80;;;6.00;;
76228;SDS011;65021;53.174;18.160;2023-05-15T08:04:32;9.50;;;6.10;;
76228;SDS011;65021;53.174;18.160;2023-05-15T08:06:59;12.40;;;6.30;;
76228;SDS011;65021;53.174;18.160;2023-05-15T08:09:25;11.10;;;5.70;;
76228;SDS011;65021;53.174;18.160;2023-05-15T08:11:55;6.80;;;4.20;;
76228;SDS011;65021;53.174;18.160;2023-05-15T08:14:22;8.30;;;5.90;;
76228;SDS011;65021;53.174;18.160;2023-05-15T08:16:49;8.90;;;6.10;;
76228;SDS011;65021;53.174;18.160;2023-05-15T08:19:16;9.00;;;5.60;;
76228;SDS011;65021;53.174;18.160;2023-05-15T08:21:44;7.50;;;5.20;;
76228;SDS011;65021;53.174;18.160;2023-05-15T08:24:11;10.10;;;6.10;;
76228;SDS011;65021;53.174;18.160;2023-05-15T08:26:37;12.10;;;6.70;;
76228;SDS011;65021;53.174;18.160;2023-05-15T08:29:04;7.10;;;4.60;;
76228;SDS011;65021;53.174;18.160;2023-05-15T08:31:30;9.00;;;6.10;;
76228;SDS011;65021;53.174;18.160;2023-05-15T08:33:57;9.00;;;5.80;;
76228;SDS011;65021;53.174;18.160;2023-05-15T08:36:24;8.70;;;5.60;;
76228;SDS011;65021;53.174;18.160;2023-05-15T08:38:50;9.00;;;6.20;;
76228;SDS011;65021;53.174;18.160;2023-05-15T08:41:20;8.80;;;5.50;;
76228;SDS011;65021;53.174;18.160;2023-05-15T08:44:12;8.30;;;4.90;;
76228;SDS011;65021;53.174;18.160;2023-05-15T08:46:39;7.20;;;4.60;;
76228;SDS011;65021;53.174;18.160;2023-05-15T08:49:10;7.70;;;4.80;;
76228;SDS011;65021;53.174;18.160;2023-05-15T08:51:58;7.20;;;3.70;;
76228;SDS011;65021;53.174;18.160;2023-05-15T08:54:24;7.10;;;3.70;;
76228;SDS011;65021;53.174;18.160;2023-05-15T08:56:52;5.90;;;4.10;;
76228;SDS011;65021;53.174;18.160;2023-05-15T08:59:19;8.30;;;4.20;;
76228;SDS011;65021;53.174;18.160;2023-05-15T09:01:46;8.90;;;4.40;;
76228;SDS011;65021;53.174;18.160;2023-05-15T09:04:12;6.60;;;3.80;;
76228;SDS011;65021;53.174;18.160;2023-05-15T09:06:39;6.70;;;4.20;;
76228;SDS011;65021;53.174;18.160;2023-05-15T09:09:07;9.10;;;4.70;;
76228;SDS011;65021;53.174;18.160;2023-05-15T09:11:34;8.50;;;4.50;;
76228;SDS011;65021;53.174;18.160;2023-05-15T09:14:03;8.10;;;4.60;;
76228;SDS011;65021;53.174;18.160;2023-05-15T09:16:29;8.60;;;5.10;;
76228;SDS011;65021;53.174;18.160;2023-05-15T09:18:56;11.40;;;5.10;;
76228;SDS011;65021;53.174;18.160;2023-05-15T09:21:26;7.10;;;4.90;;
76228;SDS011;65021;53.174;18.160;2023-05-15T09:23:54;6.90;;;3.00;;
76228;SDS011;65021;53.174;18.160;2023-05-15T09:26:41;6.90;;;4.10;;
76228;SDS011;65021;53.174;18.160;2023-05-15T09:29:08;6.50;;;4.60;;
76228;SDS011;65021;53.174;18.160;2023-05-15T09:31:35;10.10;;;5.50;;
76228;SDS011;65021;53.174;18.160;2023-05-15T09:34:01;7.50;;;4.80;;
76228;SDS011;65021;53.174;18.160;2023-05-15T09:36:30;8.10;;;5.20;;
76228;SDS011;65021;53.174;18.160;2023-05-15T09:38:58;12.30;;;6.30;;
76228;SDS011;65021;53.174;18.160;2023-05-15T09:41:26;7.30;;;5.10;;
76228;SDS011;65021;53.174;18.160;2023-05-15T09:43:54;8.40;;;5.10;;
76228;SDS011;65021;53.174;18.160;2023-05-15T09:46:22;8.60;;;4.90;;
76228;SDS011;65021;53.174;18.160;2023-05-15T09:48:52;8.30;;;5.10;;
76228;SDS011;65021;53.174;18.160;2023-05-15T09:51:20;7.50;;;4.60;;
76228;SDS011;65021;53.174;18.160;2023-05-15T09:53:47;8.80;;;4.90;;
76228;SDS011;65021;53.174;18.160;2023-05-15T09:56:16;11.00;;;6.80;;
76228;SDS011;65021;53.174;18.160;2023-05-15T10:01:24;7.60;;;4.10;;
76228;SDS011;65021;53.174;18.160;2023-05-15T10:04:02;9.30;;;4.80;;
76228;SDS011;65021;53.174;18.160;2023-05-15T10:06:35;8.90;;;6.40;;
76228;SDS011;65021;53.174;18.160;2023-05-15T10:09:03;6.60;;;3.40;;
76228;SDS011;65021;53.174;18.160;2023-05-15T10:11:30;7.10;;;4.90;;
76228;SDS011;65021;53.174;18.160;2023-05-15T10:13:59;5.90;;;3.50;;
76228;SDS011;65021;53.174;18.160;2023-05-15T10:16:27;8.80;;;5.40;;
76228;SDS011;65021;53.174;18.160;2023-05-15T10:18:58;8.30;;;5.70;;
76228;SDS011;65021;53.174;18.160;2023-05-15T10:21:29;8.90;;;5.90;;
76228;SDS011;65021;53.174;18.160;2023-05-15T10:23:58;6.90;;;4.60;;
76228;SDS011;65021;53.174;18.160;2023-05-15T10:26:32;9.20;;;6.20;;
76228;SDS011;65021;53.174;18.160;2023-05-15T10:29:04;6.90;;;4.20;;
76228;SDS011;65021;53.174;18.160;2023-05-15T10:31:32;10.90;;;6.40;;
76228;SDS011;65021;53.174;18.160;2023-05-15T10:34:01;9.40;;;6.90;;
76228;SDS011;65021;53.174;18.160;2023-05-15T10:36:30;10.40;;;7.20;;
76228;SDS011;65021;53.174;18.160;2023-05-15T10:39:01;10.00;;;7.00;;
76228;SDS011;65021;53.174;18.160;2023-05-15T10:41:31;10.30;;;6.70;;
76228;SDS011;65021;53.174;18.160;2023-05-15T10:44:04;10.20;;;6.40;;
76228;SDS011;65021;53.174;18.160;2023-05-15T10:46:32;9.20;;;6.30;;
76228;SDS011;65021;53.174;18.160;2023-05-15T10:51:28;9.60;;;5.60;;
76228;SDS011;65021;53.174;18.160;2023-05-15T10:53:58;9.20;;;5.90;;
76228;SDS011;65021;53.174;18.160;2023-05-15T10:58:55;10.20;;;7.00;;
76228;SDS011;65021;53.174;18.160;2023-05-15T11:01:28;6.80;;;4.20;;
76228;SDS011;65021;53.174;18.160;2023-05-15T11:04:12;11.70;;;7.70;;
76228;SDS011;65021;53.174;18.160;2023-05-15T11:06:45;11.60;;;7.60;;
76228;SDS011;65021;53.174;18.160;2023-05-15T11:11:56;11.60;;;8.20;;
76228;SDS011;65021;53.174;18.160;2023-05-15T11:14:24;12.80;;;8.30;;
76228;SDS011;65021;53.174;18.160;2023-05-15T11:21:57;14.50;;;9.10;;
76228;SDS011;65021;53.174;18.160;2023-05-15T11:24:26;13.40;;;9.50;;
76228;SDS011;65021;53.174;18.160;2023-05-15T11:27:00;14.70;;;9.20;;
76228;SDS011;65021;53.174;18.160;2023-05-15T11:29:28;13.50;;;8.80;;
76228;SDS011;65021;53.174;18.160;2023-05-15T11:31:55;13.20;;;7.60;;
76228;SDS011;65021;53.174;18.160;2023-05-15T11:34:30;15.00;;;9.20;;
76228;SDS011;65021;53.174;18.160;2023-05-15T11:37:08;13.80;;;8.80;;
76228;SDS011;65021;53.174;18.160;2023-05-15T11:39:43;15.70;;;9.20;;
76228;SDS011;65021;53.174;18.160;2023-05-15T11:42:10;11.60;;;8.30;;
76228;SDS011;65021;53.174;18.160;2023-05-15T11:44:37;11.20;;;7.80;;
76228;SDS011;65021;53.174;18.160;2023-05-15T11:47:08;13.50;;;9.60;;
76228;SDS011;65021;53.174;18.160;2023-05-15T11:49:36;9.20;;;6.00;;
76228;SDS011;65021;53.174;18.160;2023-05-15T11:52:03;11.50;;;9.10;;
76228;SDS011;65021;53.174;18.160;2023-05-15T11:54:31;11.00;;;7.60;;
76228;SDS011;65021;53.174;18.160;2023-05-15T11:56:58;14.40;;;9.40;;
76228;SDS011;65021;53.174;18.160;2023-05-15T11:59:25;11.90;;;8.70;;
76228;SDS011;65021;53.174;18.160;2023-05-15T12:01:52;11.00;;;7.70;;
76228;SDS011;65021;53.174;18.160;2023-05-15T12:04:19;11.60;;;8.50;;
76228;SDS011;65021;53.174;18.160;2023-05-15T12:06:46;10.10;;;7.40;;
76228;SDS011;65021;53.174;18.160;2023-05-15T12:09:17;12.10;;;8.20;;
76228;SDS011;65021;53.174;18.160;2023-05-15T12:11:49;10.70;;;7.60;;
76228;SDS011;65021;53.174;18.160;2023-05-15T12:14:17;7.90;;;5.40;;
76228;SDS011;65021;53.174;18.160;2023-05-15T12:16:52;8.00;;;5.60;;
76228;SDS011;65021;53.174;18.160;2023-05-15T12:19:22;8.50;;;5.30;;
76228;SDS011;65021;53.174;18.160;2023-05-15T12:21:52;8.10;;;5.90;;
76228;SDS011;65021;53.174;18.160;2023-05-15T12:24:19;8.30;;;6.00;;
76228;SDS011;65021;53.174;18.160;2023-05-15T12:26:46;7.70;;;5.10;;
76228;SDS011;65021;53.174;18.160;2023-05-15T12:29:13;6.40;;;3.20;;
76228;SDS011;65021;53.174;18.160;2023-05-15T12:31:40;7.20;;;4.60;;
76228;SDS011;65021;53.174;18.160;2023-05-15T12:34:08;8.60;;;5.60;;
76228;SDS011;65021;53.174;18.160;2023-05-15T12:36:35;7.50;;;5.50;;
76228;SDS011;65021;53.174;18.160;2023-05-15T12:39:05;6.20;;;4.30;;
76228;SDS011;65021;53.174;18.160;2023-05-15T12:41:33;7.30;;;4.70;;
76228;SDS011;65021;53.174;18.160;2023-05-15T12:44:01;7.10;;;4.30;;
76228;SDS011;65021;53.174;18.160;2023-05-15T12:46:28;7.60;;;4.70;;
76228;SDS011;65021;53.174;18.160;2023-05-15T12:48:57;6.90;;;4.90;;
76228;SDS011;65021;53.174;18.160;2023-05-15T12:51:24;7.10;;;4.90;;
76228;SDS011;65021;53.174;18.160;2023-05-15T12:53:52;6.60;;;3.70;;
76228;SDS011;65021;53.174;18.160;2023-05-15T12:56:19;6.60;;;3.80;;
76228;SDS011;65021;53.174;18.160;2023-05-15T12:58:46;7.50;;;4.70;;
76228;SDS011;65021;53.174;18.160;2023-05-15T13:01:14;6.00;;;3.70;;
76228;SDS011;65021;53.174;18.160;2023-05-15T13:03:41;7.00;;;4.10;;
76228;SDS011;65021;53.174;18.160;2023-05-15T13:06:09;6.90;;;3.80;;
76228;SDS011;65021;53.174;18.160;2023-05-15T13:08:42;7.40;;;3.90;;
76228;SDS011;65021;53.174;18.160;2023-05-15T13:11:12;6.30;;;4.10;;
76228;SDS011;65021;53.174;18.160;2023-05-15T13:13:43;5.70;;;2.80;;
76228;SDS011;65021;53.174;18.160;2023-05-15T13:16:31;4.70;;;2.90;;
76228;SDS011;65021;53.174;18.160;2023-05-15T13:18:58;5.30;;;3.20;;
76228;SDS011;65021;53.174;18.160;2023-05-15T13:21:24;7.60;;;4.40;;
76228;SDS011;65021;53.174;18.160;2023-05-15T13:23:51;7.30;;;5.30;;
76228;SDS011;65021;53.174;18.160;2023-05-15T13:26:18;6.90;;;4.30;;
76228;SDS011;65021;53.174;18.160;2023-05-15T13:28:44;6.80;;;4.60;;
76228;SDS011;65021;53.174;18.160;2023-05-15T13:31:11;6.40;;;4.10;;
76228;SDS011;65021;53.174;18.160;2023-05-15T13:33:38;6.40;;;4.30;;
76228;SDS011;65021;53.174;18.160;2023-05-15T13:36:05;6.90;;;3.90;;
76228;SDS011;65021;53.174;18.160;2023-05-15T13:38:32;9.20;;;5.20;;
76228;SDS011;65021;53.174;18.160;2023-05-15T13:40:58;7.20;;;5.10;;
76228;SDS011;65021;53.174;18.160;2023-05-15T13:43:25;6.90;;;4.50;;
76228;SDS011;65021;53.174;18.160;2023-05-15T13:45:52;6.20;;;4.00;;
76228;SDS011;65021;53.174;18.160;2023-05-15T13:48:19;7.70;;;4.70;;
76228;SDS011;65021;53.174;18.160;2023-05-15T13:50:46;6.10;;;3.70;;
76228;SDS011;65021;53.174;18.160;2023-05-15T13:53:12;7.20;;;4.10;;
76228;SDS011;65021;53.174;18.160;2023-05-15T13:55:44;6.50;;;3.30;;
76228;SDS011;65021;53.174;18.160;2023-05-15T13:58:12;5.70;;;3.80;;
76228;SDS011;65021;53.174;18.160;2023-05-15T14:00:40;8.50;;;4.60;;
76228;SDS011;65021;53.174;18.160;2023-05-15T14:05:34;6.50;;;4.40;;
76228;SDS011;65021;53.174;18.160;2023-05-15T14:08:01;6.10;;;3.00;;
76228;SDS011;65021;53.174;18.160;2023-05-15T14:10:28;9.60;;;5.70;;
76228;SDS011;65021;53.174;18.160;2023-05-15T14:12:55;7.40;;;4.60;;
76228;SDS011;65021;53.174;18.160;2023-05-15T14:15:22;6.90;;;4.30;;
76228;SDS011;65021;53.174;18.160;2023-05-15T14:17:48;6.20;;;4.00;;
76228;SDS011;65021;53.174;18.160;2023-05-15T14:20:15;6.40;;;3.70;;
76228;SDS011;65021;53.174;18.160;2023-05-15T14:22:42;5.80;;;3.50;;
76228;SDS011;65021;53.174;18.160;2023-05-15T14:25:09;5.80;;;3.50;;
76228;SDS011;65021;53.174;18.160;2023-05-15T14:27:36;5.90;;;3.50;;
76228;SDS011;65021;53.174;18.160;2023-05-15T14:30:02;6.90;;;4.40;;
76228;SDS011;65021;53.174;18.160;2023-05-15T14:32:29;6.60;;;4.70;;
76228;SDS011;65021;53.174;18.160;2023-05-15T14:34:56;5.90;;;3.50;;
76228;SDS011;65021;53.174;18.160;2023-05-15T14:37:25;8.00;;;3.90;;
76228;SDS011;65021;53.174;18.160;2023-05-15T14:39:52;6.70;;;4.30;;
76228;SDS011;65021;53.174;18.160;2023-05-15T14:42:19;5.80;;;3.70;;
76228;SDS011;65021;53.174;18.160;2023-05-15T14:44:46;6.50;;;4.30;;
76228;SDS011;65021;53.174;18.160;2023-05-15T14:47:13;6.30;;;4.20;;
76228;SDS011;65021;53.174;18.160;2023-05-15T14:49:41;6.00;;;3.90;;
76228;SDS011;65021;53.174;18.160;2023-05-15T14:52:08;8.10;;;5.30;;
76228;SDS011;65021;53.174;18.160;2023-05-15T14:54:36;5.40;;;3.80;;
76228;SDS011;65021;53.174;18.160;2023-05-15T14:57:04;7.20;;;3.60;;
76228;SDS011;65021;53.174;18.160;2023-05-15T14:59:31;6.10;;;3.40;;
76228;SDS011;65021;53.174;18.160;2023-05-15T15:01:57;5.80;;;3.20;;
76228;SDS011;65021;53.174;18.160;2023-05-15T15:04:24;6.80;;;4.50;;
76228;SDS011;65021;53.174;18.160;2023-05-15T15:06:53;7.30;;;3.80;;
76228;SDS011;65021;53.174;18.160;2023-05-15T15:09:22;8.50;;;5.80;;
76228;SDS011;65021;53.174;18.160;2023-05-15T15:11:49;9.60;;;4.30;;